Amberson, Pennsylvania
Current Conditions -  °F | °C
As of 7:53 PM on Tuesday 27 Jan 2015 (Local Time) from KHGR Reporting Station
Clear Clear  
Wind Chill: 13°   Ceiling: Unl
Heat Index: 25°   Visibility: 10mi
Dew Point: 15°   Wind: 15mph
Humidity: 66%   Direction: 300°WNW
Pressure: 29.91"   Gusts: NA
Location:  40.17°N, 77.68°W
Report Text: KHGR 280053Z 30013KT 10SM CLR M04/M09 A2991 RMK AO2 SLP147 T10391094
Loading
Personal Weather Stations






























Interactive Weather Map New forecast layout! Learn more

10-Day Weather Forecast

Advertisements
Track Severe Weather on mobile